createdAt,value
2022-10-05T00:00:03.139Z,20.7
2022-10-05T00:01:07.657Z,21.1
2022-10-05T00:02:17.051Z,21.3
2022-10-05T00:03:21.752Z,18.4
2022-10-05T00:04:25.923Z,19.8
2022-10-05T00:05:30.313Z,19.1
2022-10-05T00:06:34.659Z,20
2022-10-05T00:07:39.015Z,19.9
2022-10-05T00:08:43.419Z,19.9
2022-10-05T00:09:47.730Z,18.1
2022-10-05T00:10:54.991Z,20.1
2022-10-05T00:11:59.492Z,19.1
2022-10-05T00:13:11.923Z,17.6
2022-10-05T00:14:16.315Z,19.7
2022-10-05T00:15:25.227Z,17.2
2022-10-05T00:16:29.618Z,20.4
2022-10-05T00:17:34.351Z,21.3
2022-10-05T00:18:38.711Z,18.7
2022-10-05T00:19:43.411Z,20.9
2022-10-05T00:20:47.791Z,19.3
2022-10-05T00:21:52.087Z,20.9
2022-10-05T00:22:59.422Z,23.1
2022-10-05T00:24:03.688Z,17.7
2022-10-05T00:25:08.447Z,20.8
2022-10-05T00:27:20.286Z,22.6
2022-10-05T00:28:24.621Z,21.7
2022-10-05T00:29:28.885Z,18.6
2022-10-05T00:30:33.083Z,18.1
2022-10-05T00:31:37.411Z,21.2
2022-10-05T00:32:41.759Z,19.8
2022-10-05T00:33:46.119Z,18.2
2022-10-05T00:34:50.660Z,17.6
2022-10-05T00:35:55.055Z,19.4
2022-10-05T00:37:00.887Z,20.6
2022-10-05T00:38:05.268Z,18
2022-10-05T00:39:09.603Z,15.8
2022-10-05T00:40:13.656Z,15.8
2022-10-05T00:41:23.155Z,16.9
2022-10-05T00:42:30.488Z,17.1
2022-10-05T00:43:39.935Z,19.1
2022-10-05T00:44:44.442Z,19.7
2022-10-05T00:45:54.713Z,17.5
2022-10-05T00:47:07.020Z,18.2
2022-10-05T00:48:21.435Z,22.7
2022-10-05T00:49:30.908Z,19
2022-10-05T00:50:43.169Z,18.4
2022-10-05T00:51:57.735Z,19.4
2022-10-05T00:53:07.583Z,20.2
2022-10-05T00:54:15.929Z,19
2022-10-05T00:55:26.170Z,20.4
2022-10-05T00:56:35.627Z,20.9
2022-10-05T00:57:50.034Z,19
2022-10-05T00:59:00.263Z,19.9
2022-10-05T01:00:10.038Z,18.9
2022-10-05T01:01:14.330Z,18
2022-10-05T01:02:26.194Z,20.6
2022-10-05T01:03:31.183Z,21.4
2022-10-05T01:04:40.605Z,16.8
2022-10-05T01:05:55.027Z,16.1
2022-10-05T01:07:04.402Z,16.1
2022-10-05T01:08:14.327Z,16.5
2022-10-05T01:10:42.558Z,19
2022-10-05T01:11:54.687Z,13.1
2022-10-05T01:12:59.018Z,16.3
2022-10-05T01:14:13.327Z,15.3
2022-10-05T01:15:27.806Z,19
2022-10-05T01:16:37.377Z,21.9
2022-10-05T01:17:46.785Z,17.4
2022-10-05T01:18:59.215Z,23
2022-10-05T01:20:11.760Z,19.3
2022-10-05T01:21:16.101Z,20.3
2022-10-05T01:22:20.407Z,18.4
2022-10-05T01:23:29.847Z,18.8
2022-10-05T01:24:41.114Z,17.7
2022-10-05T01:25:55.498Z,18.9
2022-10-05T01:27:09.875Z,20.8
2022-10-05T01:28:19.246Z,20.4
2022-10-05T01:29:26.414Z,17.5
2022-10-05T01:30:30.975Z,17.7
2022-10-05T01:31:37.913Z,17.2
2022-10-05T01:32:45.410Z,19
2022-10-05T01:33:54.934Z,15.8
2022-10-05T01:35:04.306Z,18.2
2022-10-05T01:36:11.531Z,16.3
2022-10-05T01:37:21.256Z,14.1
2022-10-05T01:38:30.711Z,16.8
2022-10-05T01:39:44.991Z,16.5
2022-10-05T01:40:54.251Z,16.4
2022-10-05T01:41:58.427Z,13.5
2022-10-05T01:43:07.679Z,15.1
2022-10-05T01:44:11.955Z,16.5
2022-10-05T01:45:16.283Z,14.6
2022-10-05T01:46:29.200Z,15.7
2022-10-05T01:47:38.344Z,14.1
2022-10-05T01:48:48.331Z,14.8
2022-10-05T01:50:02.906Z,17.5
2022-10-05T01:51:14.923Z,18.8
2022-10-05T01:52:19.088Z,17.4
2022-10-05T01:53:23.592Z,15.5
2022-10-05T01:54:38.056Z,17.2
2022-10-05T01:55:47.545Z,14.9
2022-10-05T01:56:59.513Z,15.6
2022-10-05T01:58:14.020Z,16.1
2022-10-05T01:59:23.361Z,17.4
2022-10-05T02:00:37.827Z,15.6
2022-10-05T02:01:44.559Z,16.5
2022-10-05T02:02:52.057Z,12.4
2022-10-05T02:04:01.356Z,14.3
2022-10-05T02:05:15.800Z,13.4
2022-10-05T02:06:20.160Z,13.1
2022-10-05T02:07:24.468Z,11.9
2022-10-05T02:08:36.984Z,11.4
2022-10-05T02:09:41.391Z,13.1
2022-10-05T02:10:45.616Z,13
2022-10-05T02:11:49.996Z,13.5
2022-10-05T02:13:02.475Z,13.5
2022-10-05T02:14:11.847Z,14.3
2022-10-05T02:15:16.185Z,12.9
2022-10-05T02:16:20.482Z,13.1
2022-10-05T02:17:33.837Z,12.7
2022-10-05T02:18:46.156Z,12.7
2022-10-05T02:19:58.088Z,13.8
2022-10-05T02:21:05.832Z,12.8
2022-10-05T02:22:09.989Z,13.6
2022-10-05T02:23:19.256Z,14.4
2022-10-05T02:24:23.643Z,14.2
2022-10-05T02:25:31.187Z,13.2
2022-10-05T02:26:35.603Z,14.2
2022-10-05T02:27:39.893Z,15.3
2022-10-05T02:28:44.256Z,14.6
2022-10-05T02:29:53.307Z,15.2
2022-10-05T02:30:57.576Z,13.2
2022-10-05T02:32:10.171Z,14.3
2022-10-05T02:33:14.537Z,13.9
2022-10-05T02:34:23.796Z,11.8
2022-10-05T02:35:28.380Z,12.3
2022-10-05T02:36:32.720Z,11
2022-10-05T02:37:37.128Z,10.9
2022-10-05T02:38:48.859Z,11.7
2022-10-05T02:39:57.951Z,11.7
2022-10-05T02:41:12.499Z,9.3
2022-10-05T02:42:31.635Z,10.3
2022-10-05T02:43:43.659Z,11.4
2022-10-05T02:44:53.756Z,9.6
2022-10-05T02:46:05.995Z,9.3
2022-10-05T02:47:20.616Z,10.7
2022-10-05T02:48:35.070Z,10.3
2022-10-05T02:49:49.692Z,10.9
2022-10-05T02:50:54.048Z,12.3
2022-10-05T02:52:08.452Z,12.6
2022-10-05T02:54:26.745Z,10.1
2022-10-05T02:55:39.211Z,11.6
2022-10-05T02:56:49.006Z,10.3
2022-10-05T02:58:00.493Z,8.8
2022-10-05T02:59:14.915Z,11
2022-10-05T03:00:24.140Z,8.3
2022-10-05T03:01:28.498Z,10.5
2022-10-05T03:02:38.002Z,12
2022-10-05T03:03:45.155Z,8.8
2022-10-05T03:04:54.659Z,9.5
2022-10-05T03:06:09.103Z,9
2022-10-05T03:07:13.434Z,10.1
2022-10-05T03:08:23.874Z,10.1
2022-10-05T03:09:33.230Z,8.7
2022-10-05T03:10:38.063Z,9.7
2022-10-05T03:11:47.380Z,10.3
2022-10-05T03:12:51.847Z,10.3
2022-10-05T03:14:01.323Z,9.8
2022-10-05T03:15:13.411Z,9.6
2022-10-05T03:16:20.666Z,8.6
2022-10-05T03:17:36.338Z,9.6
2022-10-05T03:18:40.779Z,10.4
2022-10-05T03:19:53.007Z,9.9
2022-10-05T03:21:03.823Z,11.1
2022-10-05T03:22:20.499Z,10.5
2022-10-05T03:23:33.543Z,10.4
2022-10-05T03:24:51.934Z,10.1
2022-10-05T03:26:04.986Z,8.6
2022-10-05T03:27:19.759Z,10.5
2022-10-05T03:28:29.254Z,11.1
2022-10-05T03:29:36.347Z,8.5
2022-10-05T03:30:45.771Z,11.9
2022-10-05T03:32:00.735Z,8.9
2022-10-05T03:33:15.228Z,10.8
2022-10-05T03:34:27.747Z,11
2022-10-05T03:35:42.240Z,9
2022-10-05T03:36:56.623Z,13.6
2022-10-05T03:38:00.932Z,9.5
2022-10-05T03:39:15.383Z,9.6
2022-10-05T03:40:25.555Z,10.8
2022-10-05T03:42:43.723Z,9.2
2022-10-05T03:43:56.238Z,10.5
2022-10-05T03:45:08.135Z,9.7
2022-10-05T03:46:17.518Z,10.5
2022-10-05T03:47:28.423Z,8.2
2022-10-05T03:48:40.692Z,9
2022-10-05T03:49:47.978Z,11.6
2022-10-05T03:51:02.307Z,9.1
2022-10-05T03:52:06.491Z,10.7
2022-10-05T03:53:10.867Z,9
2022-10-05T03:54:20.199Z,8.1
2022-10-05T03:55:32.510Z,9.2
2022-10-05T03:56:39.531Z,11.5
2022-10-05T03:57:49.226Z,8.9
2022-10-05T03:58:53.577Z,8.6
2022-10-05T03:59:57.806Z,9.8
2022-10-05T04:01:10.487Z,11.3
2022-10-05T04:02:15.024Z,7.9
2022-10-05T04:03:27.198Z,9.2
2022-10-05T04:04:37.743Z,10.3
2022-10-05T04:05:50.060Z,9.5
2022-10-05T04:06:54.430Z,8.7
2022-10-05T04:07:58.580Z,15.6
2022-10-05T04:09:02.911Z,10.7
2022-10-05T04:10:15.192Z,10.2
2022-10-05T04:11:19.379Z,9.8
2022-10-05T04:12:24.042Z,10.4
2022-10-05T04:13:34.358Z,11.9
2022-10-05T04:14:38.692Z,10.3
2022-10-05T04:15:50.448Z,11.6
2022-10-05T04:17:00.367Z,9.1
2022-10-05T04:18:09.797Z,9.6
2022-10-05T04:19:21.969Z,10.2
2022-10-05T04:20:26.255Z,9.8
2022-10-05T04:21:40.599Z,9.4
2022-10-05T04:22:50.038Z,9.2
2022-10-05T04:23:54.367Z,10.2
2022-10-05T04:25:03.694Z,9
2022-10-05T04:26:15.763Z,10
2022-10-05T04:27:20.096Z,10.3
2022-10-05T04:28:28.274Z,9.1
2022-10-05T04:29:34.106Z,9.2
2022-10-05T04:30:39.355Z,8.8
2022-10-05T04:31:43.653Z,9.4
2022-10-05T04:32:55.817Z,9.7
2022-10-05T04:34:00.123Z,10.1
2022-10-05T04:35:04.827Z,11.2
2022-10-05T04:36:14.091Z,10.1
2022-10-05T04:37:26.186Z,8.9
2022-10-05T04:38:38.362Z,10.1
2022-10-05T04:39:52.672Z,11.5
2022-10-05T04:41:01.994Z,10.7
2022-10-05T04:42:14.290Z,12.3
2022-10-05T04:43:23.679Z,10.6
2022-10-05T04:44:38.107Z,10.4
2022-10-05T04:45:50.038Z,12.3
2022-10-05T04:46:59.642Z,10.6
2022-10-05T04:48:09.916Z,10.1
2022-10-05T04:49:19.294Z,12.1
2022-10-05T04:50:28.694Z,8
2022-10-05T04:51:40.902Z,9.2
2022-10-05T04:52:55.375Z,10.5
2022-10-05T04:54:04.823Z,10.1
2022-10-05T04:55:14.268Z,11.1
2022-10-05T04:56:23.467Z,12.1
2022-10-05T04:58:46.287Z,11.2
2022-10-05T05:00:01.472Z,12.1
2022-10-05T05:01:13.835Z,9.1
2022-10-05T05:02:28.195Z,10.1
2022-10-05T05:03:43.081Z,12.6
2022-10-05T05:04:54.758Z,10.1
2022-10-05T05:06:22.361Z,10.3
2022-10-05T05:07:22.743Z,9.7
2022-10-05T05:08:32.279Z,11
2022-10-05T05:09:46.753Z,9.3
2022-10-05T05:10:56.310Z,11.7
2022-10-05T05:12:10.082Z,9
2022-10-05T05:13:24.566Z,11.3
2022-10-05T05:14:36.807Z,9.9
2022-10-05T05:15:51.177Z,9.3
2022-10-05T05:18:49.794Z,9.6
2022-10-05T05:20:04.142Z,10.4
2022-10-05T05:21:16.610Z,9.2
2022-10-05T05:22:28.643Z,9.1
2022-10-05T05:23:35.902Z,9.3
2022-10-05T05:24:48.315Z,9.4
2022-10-05T05:26:00.348Z,8.4
2022-10-05T05:27:14.907Z,10.2
2022-10-05T05:28:24.599Z,11.6
2022-10-05T05:29:33.794Z,9.1
2022-10-05T05:30:42.482Z,9.7
2022-10-05T05:31:53.386Z,12.2
2022-10-05T05:33:06.475Z,10.6
2022-10-05T05:34:18.787Z,11.6
2022-10-05T05:35:33.262Z,11.3
2022-10-05T05:36:37.617Z,11.2
2022-10-05T05:37:52.151Z,13.1
2022-10-05T05:39:06.690Z,13.4
2022-10-05T05:40:21.491Z,12.8
2022-10-05T05:41:25.874Z,14.7
2022-10-05T05:42:38.350Z,15.1
2022-10-05T05:43:52.310Z,14.3
2022-10-05T05:45:01.858Z,14.8
2022-10-05T05:46:17.900Z,14.9
2022-10-05T05:47:27.224Z,15.7
2022-10-05T05:48:34.776Z,17.2
2022-10-05T05:49:41.851Z,16.5
2022-10-05T05:50:51.911Z,16.7
2022-10-05T05:52:08.386Z,15.3
2022-10-05T05:53:16.045Z,13.8
2022-10-05T05:54:25.278Z,15.5
2022-10-05T05:55:34.582Z,16.9
2022-10-05T05:56:38.853Z,16.3
2022-10-05T05:57:43.106Z,13.7
2022-10-05T05:58:55.966Z,14.1
2022-10-05T06:00:09.402Z,16.3
2022-10-05T06:01:32.498Z,13.7
2022-10-05T06:03:29.179Z,15.4
2022-10-05T06:04:39.063Z,13.7
2022-10-05T06:05:54.019Z,15.8
2022-10-05T06:06:58.871Z,14.3
2022-10-05T06:09:06.445Z,14.6
2022-10-05T06:10:20.738Z,14.7
2022-10-05T06:11:25.070Z,15.4
2022-10-05T06:12:33.894Z,16.4
2022-10-05T06:13:38.198Z,16.4
2022-10-05T06:14:42.823Z,16.4
2022-10-05T06:15:49.638Z,14.5
2022-10-05T06:16:59.899Z,15.1
2022-10-05T06:18:12.158Z,13.1
2022-10-05T06:19:16.791Z,13
2022-10-05T06:20:20.923Z,12.1
2022-10-05T06:21:30.971Z,16.8
2022-10-05T06:22:43.035Z,16.1
2022-10-05T06:23:50.078Z,11.8
2022-10-05T06:25:02.066Z,13.7
2022-10-05T06:26:16.823Z,16.1
2022-10-05T06:27:31.323Z,13.8
2022-10-05T06:28:35.426Z,13.2
2022-10-05T06:29:39.554Z,13.7
2022-10-05T06:30:53.915Z,14.5
2022-10-05T06:32:01.066Z,13.3
2022-10-05T06:33:05.218Z,14.7
2022-10-05T06:34:12.060Z,13.5
2022-10-05T06:35:26.419Z,14
2022-10-05T06:36:38.398Z,11.4
2022-10-05T06:37:47.670Z,13.1
2022-10-05T06:38:59.882Z,13.1
2022-10-05T06:40:14.354Z,12.2
2022-10-05T06:41:31.424Z,14.3
2022-10-05T06:42:44.459Z,11.3
2022-10-05T06:43:58.299Z,11.5
2022-10-05T06:45:05.534Z,12.9
2022-10-05T06:46:17.972Z,11
2022-10-05T06:47:25.138Z,10.5
2022-10-05T06:48:32.378Z,12.4
2022-10-05T06:49:46.823Z,10.7
2022-10-05T06:50:51.188Z,13.5
2022-10-05T06:52:05.530Z,14.9
2022-10-05T06:53:12.803Z,11.2
2022-10-05T06:54:24.971Z,11.6
2022-10-05T06:55:39.422Z,10.4
2022-10-05T06:56:53.770Z,12
2022-10-05T06:58:09.934Z,10.4
2022-10-05T06:59:22.102Z,9.7
2022-10-05T07:00:31.286Z,12.4
2022-10-05T07:01:37.905Z,12.4
2022-10-05T07:02:48.406Z,12.4
2022-10-05T07:03:57.643Z,11.4
2022-10-05T07:05:11.946Z,10.5
2022-10-05T07:06:26.275Z,10.8
2022-10-05T07:07:38.815Z,10.2
2022-10-05T07:08:42.926Z,10.7
2022-10-05T07:09:47.215Z,10.4
2022-10-05T07:11:02.606Z,10.4
2022-10-05T07:12:11.540Z,10.5
2022-10-05T07:13:26.700Z,10.1
2022-10-05T07:14:38.750Z,12.1
2022-10-05T07:15:53.342Z,9.3
2022-10-05T07:17:04.865Z,12
2022-10-05T07:18:21.566Z,14.2
2022-10-05T07:19:28.582Z,11.9
2022-10-05T07:20:40.351Z,11.3
2022-10-05T07:21:50.069Z,10.7
2022-10-05T07:22:54.119Z,8.9
2022-10-05T07:24:01.360Z,8.5
2022-10-05T07:25:14.472Z,9.7
2022-10-05T07:26:21.703Z,9.8
2022-10-05T07:27:31.210Z,8.5
2022-10-05T07:28:35.544Z,7.7
2022-10-05T07:29:44.890Z,9.9
2022-10-05T07:30:59.967Z,9.5
2022-10-05T07:32:09.018Z,7.5
2022-10-05T07:33:23.371Z,10.2
2022-10-05T07:34:34.657Z,9.8
2022-10-05T07:35:48.163Z,9
2022-10-05T07:37:03.216Z,9.1
2022-10-05T07:38:18.262Z,8.7
2022-10-05T07:39:55.687Z,8.5
2022-10-05T07:40:45.948Z,10.1
2022-10-05T07:41:55.343Z,9.9
2022-10-05T07:43:05.513Z,8
2022-10-05T07:44:13.502Z,9.2
2022-10-05T07:45:22.345Z,9.9
2022-10-05T07:46:41.428Z,8
2022-10-05T07:47:56.228Z,11
2022-10-05T07:50:09.910Z,9.1
2022-10-05T07:51:16.946Z,8.1
2022-10-05T07:52:32.360Z,8.9
2022-10-05T07:54:42.672Z,8.2
2022-10-05T07:55:56.990Z,7.2
2022-10-05T07:57:01.241Z,9.3
2022-10-05T07:58:18.413Z,10.6
2022-10-05T07:59:28.649Z,7.9
2022-10-05T08:00:41.055Z,8
2022-10-05T08:01:50.396Z,9.6
2022-10-05T08:02:54.595Z,11.3
2022-10-05T08:04:01.776Z,8
2022-10-05T08:05:16.246Z,8
2022-10-05T08:06:26.234Z,9.7
2022-10-05T08:07:38.542Z,7.2
2022-10-05T08:08:42.682Z,12.3
2022-10-05T08:09:54.759Z,5.9
2022-10-05T08:11:11.698Z,7.7
2022-10-05T08:12:26.034Z,9.4
2022-10-05T08:13:45.323Z,7.6
2022-10-05T08:14:54.630Z,8.3
2022-10-05T08:16:08.526Z,8.4
2022-10-05T08:17:19.841Z,8.9
2022-10-05T08:18:22.334Z,7.8
2022-10-05T08:19:34.804Z,10.1
2022-10-05T08:20:39.558Z,10.1
2022-10-05T08:21:50.363Z,10.5
2022-10-05T08:22:59.950Z,7.8
2022-10-05T08:24:06.854Z,9.3
2022-10-05T08:25:20.707Z,10.3
2022-10-05T08:26:24.994Z,5.9
2022-10-05T08:28:56.744Z,10.3
2022-10-05T08:30:00.994Z,7.9
2022-10-05T08:31:05.536Z,7.6
2022-10-05T08:32:12.399Z,10.2
2022-10-05T08:33:22.902Z,10
2022-10-05T08:34:27.156Z,7.9
2022-10-05T08:35:41.446Z,7.7
2022-10-05T08:36:48.239Z,6.8
2022-10-05T08:37:56.179Z,9.2
2022-10-05T08:39:03.378Z,9.8
2022-10-05T08:40:07.633Z,7.3
2022-10-05T08:41:16.965Z,11.2
2022-10-05T08:42:34.094Z,10.3
2022-10-05T08:43:48.726Z,11.6
2022-10-05T08:45:03.065Z,8.2
2022-10-05T08:47:18.983Z,9.6
2022-10-05T08:48:28.648Z,10.2
2022-10-05T08:49:43.150Z,9.3
2022-10-05T08:50:59.583Z,10.4
2022-10-05T08:52:14.086Z,10.4
2022-10-05T08:53:24.408Z,11.4
2022-10-05T08:54:38.837Z,10.5
2022-10-05T08:55:53.283Z,9.6
2022-10-05T08:57:07.796Z,8.4
2022-10-05T08:58:22.363Z,10.3
2022-10-05T08:59:36.815Z,8.4
2022-10-05T09:00:51.502Z,8.4
2022-10-05T09:02:01.079Z,7.9
2022-10-05T09:03:12.778Z,7.4
2022-10-05T09:04:20.250Z,8.9
2022-10-05T09:05:32.206Z,8.3
2022-10-05T09:06:41.545Z,9.6
2022-10-05T09:07:45.841Z,8
2022-10-05T09:08:59.308Z,7.1
2022-10-05T09:10:13.994Z,8.1
2022-10-05T09:11:28.390Z,8.4
2022-10-05T09:12:42.713Z,9.3
2022-10-05T09:13:51.910Z,6.9
2022-10-05T09:15:26.929Z,8.9
2022-10-05T09:16:13.656Z,7.9
2022-10-05T09:17:29.308Z,6.6
2022-10-05T09:18:39.182Z,7.7
2022-10-05T09:19:48.362Z,8.4
2022-10-05T09:20:52.597Z,8.6
2022-10-05T09:21:59.446Z,9.4
2022-10-05T09:23:15.182Z,7.8
2022-10-05T09:24:24.373Z,8.2
2022-10-05T09:25:28.875Z,9
2022-10-05T09:26:38.237Z,8.9
2022-10-05T09:27:56.959Z,7.5
2022-10-05T09:29:09.215Z,8.4
2022-10-05T09:30:18.585Z,8.4
2022-10-05T09:31:30.372Z,7.3
2022-10-05T09:32:44.642Z,7
2022-10-05T09:33:54.035Z,7.6
2022-10-05T09:35:03.634Z,8.6
2022-10-05T09:36:18.041Z,9.2
2022-10-05T09:37:27.534Z,7.8
2022-10-05T09:38:36.858Z,6.9
2022-10-05T09:39:49.185Z,8.6
2022-10-05T09:41:03.853Z,7.3
2022-10-05T09:42:13.151Z,8.8
2022-10-05T09:43:24.738Z,10
2022-10-05T09:44:39.405Z,8.8
2022-10-05T09:45:53.789Z,9
2022-10-05T09:47:08.116Z,9.2
2022-10-05T09:48:17.405Z,8.8
2022-10-05T09:49:32.087Z,8.8
2022-10-05T09:50:46.341Z,8.2
2022-10-05T09:51:58.595Z,8.7
2022-10-05T09:53:05.530Z,9.8
2022-10-05T09:54:14.757Z,8.2
2022-10-05T09:55:29.341Z,9.4
2022-10-05T09:56:36.355Z,8.9
2022-10-05T09:57:49.421Z,12.4
2022-10-05T09:59:02.771Z,8.4
2022-10-05T10:00:14.838Z,8.7
2022-10-05T10:01:33.411Z,7.5
2022-10-05T10:02:36.405Z,8.9
2022-10-05T10:03:54.683Z,10
2022-10-05T10:05:06.774Z,8.7
2022-10-05T10:06:19.041Z,8.8
2022-10-05T10:07:33.364Z,7.2
2022-10-05T10:08:45.778Z,8.9
2022-10-05T10:09:58.612Z,18.8
2022-10-05T10:11:12.966Z,10.6
2022-10-05T10:12:24.958Z,9.1
2022-10-05T10:13:35.477Z,10.3
2022-10-05T10:14:49.795Z,7.7
2022-10-05T10:16:04.271Z,10
2022-10-05T10:17:18.554Z,8.3
2022-10-05T10:18:30.570Z,9.2
2022-10-05T10:19:45.025Z,8.1
2022-10-05T10:20:58.803Z,8.6
2022-10-05T10:22:08.158Z,8.2
2022-10-05T10:23:20.434Z,8.6
2022-10-05T10:24:32.814Z,8
2022-10-05T10:25:47.425Z,8.5
2022-10-05T10:26:56.778Z,7.8
2022-10-05T10:28:11.188Z,9.4
2022-10-05T10:29:20.595Z,14.4
2022-10-05T10:30:26.271Z,9.6
2022-10-05T10:31:39.470Z,11.5
2022-10-05T10:32:54.053Z,9.6
2022-10-05T10:34:08.514Z,11.3
2022-10-05T10:35:20.663Z,8
2022-10-05T10:36:32.909Z,9.5
2022-10-05T10:37:44.733Z,9.7
2022-10-05T10:39:02.189Z,7.7
2022-10-05T10:40:18.862Z,9
2022-10-05T10:41:33.481Z,11
2022-10-05T10:42:47.809Z,11.9
2022-10-05T10:44:00.682Z,9.2
2022-10-05T10:45:13.126Z,7.6
2022-10-05T10:46:20.902Z,10.6
2022-10-05T10:47:35.342Z,8.8
2022-10-05T10:48:49.766Z,7.4
2022-10-05T10:49:59.820Z,8.4
2022-10-05T10:51:11.958Z,7.8
2022-10-05T10:52:24.723Z,9
2022-10-05T10:53:34.149Z,9.2
2022-10-05T10:54:43.671Z,10.2
2022-10-05T10:55:58.126Z,8.5
2022-10-05T10:57:13.294Z,11.4
2022-10-05T10:59:33.857Z,8.3
2022-10-05T11:00:43.283Z,10.3
2022-10-05T11:01:51.045Z,8.8
2022-10-05T11:03:02.919Z,8.1
2022-10-05T11:04:12.314Z,6.9
2022-10-05T11:05:26.814Z,8.7
2022-10-05T11:06:41.141Z,8.5
2022-10-05T11:07:55.569Z,9.8
2022-10-05T11:09:04.821Z,7.2
2022-10-05T11:10:09.004Z,9.9
2022-10-05T11:11:24.162Z,8.2
2022-10-05T11:12:38.913Z,8.3
2022-10-05T11:13:48.182Z,6.2
2022-10-05T11:15:02.940Z,6.6
2022-10-05T11:16:13.433Z,7
2022-10-05T11:17:19.489Z,6.9
2022-10-05T11:18:35.179Z,9
2022-10-05T11:20:05.165Z,5.6
2022-10-05T11:20:59.982Z,14
2022-10-05T11:22:15.658Z,6.9
2022-10-05T11:24:39.493Z,6.9
2022-10-05T11:25:55.450Z,6.8
2022-10-05T11:27:10.223Z,7.1
2022-10-05T11:28:22.709Z,5.6
2022-10-05T11:29:35.854Z,6.8
2022-10-05T11:30:46.292Z,7.5
2022-10-05T11:32:00.229Z,8
2022-10-05T11:33:15.478Z,8
2022-10-05T11:34:24.761Z,8.7
2022-10-05T11:35:39.175Z,8.2
2022-10-05T11:36:52.078Z,6.5
2022-10-05T11:38:04.885Z,7.5
2022-10-05T11:39:19.385Z,8.6
2022-10-05T11:40:31.441Z,8.7
2022-10-05T11:41:43.477Z,8.8
2022-10-05T11:42:58.010Z,6.7
2022-10-05T11:44:07.933Z,10
2022-10-05T11:45:16.022Z,7.1
2022-10-05T11:46:26.110Z,8.2
2022-10-05T11:47:35.957Z,9.1
2022-10-05T11:48:45.325Z,12.5
2022-10-05T11:49:59.721Z,6.6
2022-10-05T11:51:11.981Z,5.7
2022-10-05T11:52:24.453Z,7.8
2022-10-05T11:53:38.970Z,10.2
2022-10-05T11:55:06.244Z,7.4
2022-10-05T11:55:55.179Z,6.7
2022-10-05T11:57:09.478Z,6.5
2022-10-05T11:58:21.729Z,6.8
2022-10-05T11:59:29.073Z,6.6
2022-10-05T12:00:33.280Z,7.7
2022-10-05T12:01:40.531Z,6.5
2022-10-05T12:03:56.408Z,7.6
2022-10-05T12:05:10.645Z,5.5
2022-10-05T12:06:19.957Z,6.5
2022-10-05T12:07:29.286Z,6
2022-10-05T12:08:38.601Z,7.7
2022-10-05T12:09:53.766Z,8.6
2022-10-05T12:11:13.306Z,6.9
2022-10-05T12:12:28.301Z,6.7
2022-10-05T12:13:40.789Z,5.9
2022-10-05T12:14:50.560Z,7.2
2022-10-05T12:16:00.709Z,7.1
2022-10-05T12:17:12.861Z,5.7
2022-10-05T12:18:22.649Z,7
2022-10-05T12:20:35.304Z,7.5
2022-10-05T12:21:39.757Z,8.6
2022-10-05T12:22:49.655Z,8.5
2022-10-05T12:23:53.962Z,7.3
2022-10-05T12:25:05.845Z,6.5
2022-10-05T12:26:15.099Z,9
2022-10-05T12:27:24.558Z,7
2022-10-05T12:28:29.347Z,8.2
2022-10-05T12:29:35.413Z,6.8
2022-10-05T12:31:51.182Z,7.5
2022-10-05T12:33:05.615Z,9.3
2022-10-05T12:34:13.457Z,8.3
2022-10-05T12:35:43.726Z,8.1
2022-10-05T12:36:59.533Z,6.1
2022-10-05T12:37:48.067Z,6.1
2022-10-05T12:38:57.381Z,6.5
2022-10-05T12:40:09.385Z,7.1
2022-10-05T12:41:19.145Z,7.5
2022-10-05T12:42:28.393Z,7.8
2022-10-05T12:43:35.581Z,9.3
2022-10-05T12:44:51.110Z,8.2
2022-10-05T12:46:00.710Z,6.7
2022-10-05T12:47:15.145Z,7.4
2022-10-05T12:48:22.357Z,12.4
2022-10-05T12:49:36.772Z,9.3
2022-10-05T12:50:47.405Z,9
2022-10-05T12:51:56.591Z,6.4
2022-10-05T12:53:05.981Z,9.8
2022-10-05T12:54:15.295Z,5.1
2022-10-05T12:55:24.785Z,8.5
2022-10-05T12:56:34.347Z,7.8
2022-10-05T12:57:43.589Z,7.2
2022-10-05T12:58:54.273Z,8.2
2022-10-05T13:00:03.553Z,8.7
2022-10-05T13:01:13.939Z,6.1
2022-10-05T13:02:28.357Z,6.7
2022-10-05T13:03:37.905Z,6.4
2022-10-05T13:04:51.041Z,7.8
2022-10-05T13:06:03.129Z,7.1
2022-10-05T13:07:10.085Z,7.6
2022-10-05T13:08:22.777Z,6.1
2022-10-05T13:09:35.578Z,5.5
2022-10-05T13:10:48.136Z,6.1
2022-10-05T13:11:57.561Z,7.9
2022-10-05T13:13:04.337Z,7.5
2022-10-05T13:14:18.789Z,8.2
2022-10-05T13:15:33.290Z,8.4
2022-10-05T13:16:38.115Z,9.6
2022-10-05T13:17:50.331Z,9.9
2022-10-05T13:18:59.828Z,7.5
2022-10-05T13:20:09.644Z,6.8
2022-10-05T13:22:28.876Z,6.6
2022-10-05T13:23:41.204Z,6
2022-10-05T13:24:55.667Z,7.6
2022-10-05T13:26:02.937Z,6.4
2022-10-05T13:27:07.495Z,6.5
2022-10-05T13:28:17.512Z,6.1
2022-10-05T13:29:24.766Z,7.5
2022-10-05T13:30:29.685Z,6.4
2022-10-05T13:31:33.906Z,7
2022-10-05T13:32:40.972Z,6.9
2022-10-05T13:33:45.184Z,10.3
2022-10-05T13:34:59.730Z,8.1
2022-10-05T13:36:14.819Z,8.2
2022-10-05T13:37:27.644Z,7
2022-10-05T13:38:41.881Z,9.3
2022-10-05T13:39:51.627Z,7.5
2022-10-05T13:40:58.599Z,7.3
2022-10-05T13:42:03.177Z,7.7
2022-10-05T13:43:15.465Z,9.1
2022-10-05T13:44:22.392Z,7.4
2022-10-05T13:45:32.157Z,6.5
2022-10-05T13:46:46.827Z,7.4
2022-10-05T13:48:01.188Z,7.7
2022-10-05T13:49:15.879Z,7.9
2022-10-05T13:50:27.433Z,8.1
2022-10-05T13:51:29.680Z,9.1
2022-10-05T13:52:36.453Z,6.6
2022-10-05T13:53:46.592Z,9.1
2022-10-05T13:55:01.932Z,9.1
2022-10-05T13:56:09.313Z,8.1
2022-10-05T13:57:21.440Z,9.2
2022-10-05T13:58:25.855Z,7.6
2022-10-05T13:59:35.916Z,6.7
2022-10-05T14:00:45.416Z,7.1
2022-10-05T14:01:55.055Z,9.4
2022-10-05T14:03:02.328Z,9
2022-10-05T14:04:06.492Z,6.8
2022-10-05T14:05:16.594Z,7
2022-10-05T14:06:20.892Z,9
2022-10-05T14:07:25.149Z,7.8
2022-10-05T14:08:32.487Z,8.9
2022-10-05T14:09:36.668Z,9.8
2022-10-05T14:10:41.031Z,8.9
2022-10-05T14:11:45.299Z,10.7
2022-10-05T14:12:49.623Z,9.6
2022-10-05T14:13:54.140Z,7
2022-10-05T14:15:03.443Z,7.6
2022-10-05T14:16:13.883Z,9.2
2022-10-05T14:17:24.356Z,9.3
2022-10-05T14:18:31.495Z,11.7
2022-10-05T14:19:35.955Z,12.9
2022-10-05T14:20:45.896Z,11.3
2022-10-05T14:22:02.160Z,9.5
2022-10-05T14:23:11.612Z,14
2022-10-05T14:24:25.772Z,30.7
2022-10-05T14:25:21.229Z,16.1
2022-10-05T14:26:25.450Z,17.6
2022-10-05T14:27:32.899Z,17.8
2022-10-05T14:28:45.042Z,16.6
2022-10-05T14:29:54.665Z,20.7
2022-10-05T14:30:59.399Z,13.7
2022-10-05T14:32:06.119Z,14.7
2022-10-05T14:33:15.447Z,11.4
2022-10-05T14:34:20.004Z,11.6
2022-10-05T14:35:32.507Z,8.3
2022-10-05T14:36:47.240Z,11.1
2022-10-05T14:37:51.819Z,11.2
2022-10-05T14:39:01.471Z,10
2022-10-05T14:40:05.799Z,11
2022-10-05T14:41:20.381Z,9.5
2022-10-05T14:42:27.898Z,8.9
2022-10-05T14:43:32.332Z,8.6
2022-10-05T14:44:37.453Z,9
2022-10-05T14:45:42.548Z,8.2
2022-10-05T14:46:51.707Z,8.9
2022-10-05T14:47:56.203Z,7.4
2022-10-05T14:49:00.592Z,9.2
2022-10-05T14:50:12.896Z,9.5
2022-10-05T14:51:22.936Z,10.2
2022-10-05T14:52:27.273Z,9
2022-10-05T14:53:34.707Z,7.5
2022-10-05T14:54:38.983Z,8.6
2022-10-05T14:55:51.205Z,8.9
2022-10-05T14:57:00.497Z,10.6
2022-10-05T14:58:04.907Z,7.7
2022-10-05T14:59:14.283Z,11.3
2022-10-05T15:00:26.291Z,10.7
2022-10-05T15:01:30.645Z,9.5
2022-10-05T15:02:34.829Z,7.9
2022-10-05T15:03:46.742Z,7.1
2022-10-05T15:05:01.321Z,8.2
2022-10-05T15:06:05.536Z,8.9
2022-10-05T15:07:09.867Z,10.4
2022-10-05T15:08:22.187Z,9.6
2022-10-05T15:09:34.297Z,8.5
2022-10-05T15:10:48.904Z,10.7
2022-10-05T15:11:53.223Z,11.5
2022-10-05T15:12:57.928Z,8.6
2022-10-05T15:14:05.639Z,9.8
2022-10-05T15:15:13.476Z,11.2
2022-10-05T15:16:23.038Z,10
2022-10-05T15:17:27.341Z,10.5
2022-10-05T15:18:34.589Z,9.6
2022-10-05T15:19:44.019Z,9.2
2022-10-05T15:20:53.391Z,9.4
2022-10-05T15:22:03.352Z,8.5
2022-10-05T15:23:16.525Z,9.5
2022-10-05T15:24:31.393Z,10.5
2022-10-05T15:25:39.173Z,9.3
2022-10-05T15:26:45.908Z,9.6
2022-10-05T15:27:55.890Z,11.5
2022-10-05T15:29:10.511Z,10.6
2022-10-05T15:30:18.312Z,11.9
2022-10-05T15:31:22.676Z,7.9
2022-10-05T15:32:37.011Z,13.4
2022-10-05T15:33:41.436Z,15.8
2022-10-05T15:34:45.769Z,9.5
2022-10-05T15:35:58.628Z,12.2
2022-10-05T15:37:13.101Z,10.9
2022-10-05T15:38:17.453Z,8.9
2022-10-05T15:39:25.101Z,8.9
2022-10-05T15:40:37.040Z,12.4
2022-10-05T15:41:46.364Z,9.3
2022-10-05T15:42:53.336Z,9.2
2022-10-05T15:43:58.665Z,12.2
2022-10-05T15:45:08.872Z,10.8
2022-10-05T15:46:15.905Z,13.3
2022-10-05T15:47:22.832Z,12.7
2022-10-05T15:48:33.276Z,9.8
2022-10-05T15:49:47.684Z,10.8
2022-10-05T15:50:54.862Z,9.6
2022-10-05T15:52:04.433Z,13.8
2022-10-05T15:53:16.702Z,10.9
2022-10-05T15:54:21.604Z,13.6
2022-10-05T15:55:39.105Z,14.8
2022-10-05T15:56:48.432Z,13.9
2022-10-05T15:57:57.829Z,11.1
2022-10-05T15:59:14.217Z,12.1
2022-10-05T16:00:20.596Z,20.5
2022-10-05T16:01:25.194Z,15.3
2022-10-05T16:02:33.337Z,11.4
2022-10-05T16:03:37.652Z,13.2
2022-10-05T16:04:47.200Z,15.2
2022-10-05T16:05:56.527Z,15
2022-10-05T16:07:08.545Z,12.4
2022-10-05T16:08:18.122Z,16.5
2022-10-05T16:09:37.809Z,12.5
2022-10-05T16:10:50.840Z,16.9
2022-10-05T16:11:55.922Z,16.8
2022-10-05T16:13:08.340Z,16